sensor_id;sensor_type;location;lat;lon;timestamp;pressure;altitude;pressure_sealevel;temperature;humidity
36248;BME280;22287;50.824;5.644;2022-11-13T00:02:18;101852.75;;;9.41;70.54
36248;BME280;22287;50.824;5.644;2022-11-13T00:05:07;101860.72;;;9.28;70.81
36248;BME280;22287;50.824;5.644;2022-11-13T00:07:52;101850.50;;;9.19;71.15
36248;BME280;22287;50.824;5.644;2022-11-13T00:10:38;101852.63;;;9.42;70.61
36248;BME280;22287;50.824;5.644;2022-11-13T00:13:23;101848.97;;;9.29;70.01
36248;BME280;22287;50.824;5.644;2022-11-13T00:16:17;101845.50;;;9.27;69.97
36248;BME280;22287;50.824;5.644;2022-11-13T00:19:03;101842.56;;;9.02;70.61
36248;BME280;22287;50.824;5.644;2022-11-13T00:21:48;101833.50;;;9.03;70.43
36248;BME280;22287;50.824;5.644;2022-11-13T00:24:33;101832.03;;;8.98;70.52
36248;BME280;22287;50.824;5.644;2022-11-13T00:27:20;101830.81;;;8.89;70.55
36248;BME280;22287;50.824;5.644;2022-11-13T00:30:06;101823.47;;;8.91;70.03
36248;BME280;22287;50.824;5.644;2022-11-13T00:32:51;101812.94;;;8.72;71.10
36248;BME280;22287;50.824;5.644;2022-11-13T00:35:36;101814.50;;;8.47;71.83
36248;BME280;22287;50.824;5.644;2022-11-13T00:38:21;101814.81;;;8.86;70.59
36248;BME280;22287;50.824;5.644;2022-11-13T00:41:06;101808.53;;;8.85;70.08
36248;BME280;22287;50.824;5.644;2022-11-13T00:43:52;101815.50;;;8.60;70.53
36248;BME280;22287;50.824;5.644;2022-11-13T00:46:37;101812.13;;;8.86;69.78
36248;BME280;22287;50.824;5.644;2022-11-13T00:49:22;101798.97;;;8.66;70.62
36248;BME280;22287;50.824;5.644;2022-11-13T00:52:08;101802.34;;;8.69;70.50
36248;BME280;22287;50.824;5.644;2022-11-13T00:54:53;101793.22;;;8.72;70.07
36248;BME280;22287;50.824;5.644;2022-11-13T00:57:39;101784.97;;;8.59;70.68
36248;BME280;22287;50.824;5.644;2022-11-13T01:00:24;101779.50;;;8.61;70.00
36248;BME280;22287;50.824;5.644;2022-11-13T01:03:10;101781.97;;;8.50;70.78
36248;BME280;22287;50.824;5.644;2022-11-13T01:05:56;101780.34;;;8.47;71.09
36248;BME280;22287;50.824;5.644;2022-11-13T01:08:41;101776.72;;;8.33;71.00
36248;BME280;22287;50.824;5.644;2022-11-13T01:11:28;101774.78;;;8.50;70.83
36248;BME280;22287;50.824;5.644;2022-11-13T01:14:13;101779.56;;;8.75;69.87
36248;BME280;22287;50.824;5.644;2022-11-13T01:16:59;101779.56;;;8.75;69.51
36248;BME280;22287;50.824;5.644;2022-11-13T01:19:44;101770.91;;;8.54;69.54
36248;BME280;22287;50.824;5.644;2022-11-13T01:22:29;101777.06;;;8.56;69.81
36248;BME280;22287;50.824;5.644;2022-11-13T01:25:17;101776.28;;;8.98;68.04
36248;BME280;22287;50.824;5.644;2022-11-13T01:28:02;101775.13;;;8.88;68.92
36248;BME280;22287;50.824;5.644;2022-11-13T01:30:47;101776.63;;;9.08;68.50
36248;BME280;22287;50.824;5.644;2022-11-13T01:33:33;101779.19;;;9.09;67.86
36248;BME280;22287;50.824;5.644;2022-11-13T01:36:24;101779.56;;;8.75;69.07
36248;BME280;22287;50.824;5.644;2022-11-13T01:39:11;101780.56;;;9.16;67.81
36248;BME280;22287;50.824;5.644;2022-11-13T01:41:57;101771.22;;;9.08;67.62
36248;BME280;22287;50.824;5.644;2022-11-13T01:44:51;101766.97;;;9.18;67.02
36248;BME280;22287;50.824;5.644;2022-11-13T01:47:36;101764.56;;;9.41;67.60
36248;BME280;22287;50.824;5.644;2022-11-13T01:50:21;101754.66;;;9.00;68.34
36248;BME280;22287;50.824;5.644;2022-11-13T01:53:07;101753.75;;;8.85;68.88
36248;BME280;22287;50.824;5.644;2022-11-13T01:55:52;101758.59;;;8.94;68.61
36248;BME280;22287;50.824;5.644;2022-11-13T01:58:40;101756.56;;;9.12;67.90
36248;BME280;22287;50.824;5.644;2022-11-13T02:01:27;101747.63;;;9.11;67.71
36248;BME280;22287;50.824;5.644;2022-11-13T02:04:12;101747.41;;;8.86;68.41
36248;BME280;22287;50.824;5.644;2022-11-13T02:07:05;101740.81;;;8.62;69.25
36248;BME280;22287;50.824;5.644;2022-11-13T02:09:54;101741.34;;;8.39;69.82
36248;BME280;22287;50.824;5.644;2022-11-13T02:12:42;101738.38;;;8.43;69.65
36248;BME280;22287;50.824;5.644;2022-11-13T02:15:32;101731.53;;;8.22;70.45
36248;BME280;22287;50.824;5.644;2022-11-13T02:18:38;101738.34;;;8.13;71.16
36248;BME280;22287;50.824;5.644;2022-11-13T02:21:37;101731.25;;;8.26;70.58
36248;BME280;22287;50.824;5.644;2022-11-13T02:24:33;101726.34;;;8.19;70.44
36248;BME280;22287;50.824;5.644;2022-11-13T02:30:28;101729.78;;;8.21;70.38
36248;BME280;22287;50.824;5.644;2022-11-13T02:33:28;101728.94;;;8.36;70.31
36248;BME280;22287;50.824;5.644;2022-11-13T02:36:14;101733.41;;;8.65;69.49
36248;BME280;22287;50.824;5.644;2022-11-13T02:39:03;101726.22;;;8.80;68.50
36248;BME280;22287;50.824;5.644;2022-11-13T02:41:50;101725.06;;;8.84;67.94
36248;BME280;22287;50.824;5.644;2022-11-13T02:44:35;101723.47;;;8.52;68.13
36248;BME280;22287;50.824;5.644;2022-11-13T02:47:20;101719.66;;;8.56;68.76
36248;BME280;22287;50.824;5.644;2022-11-13T02:50:06;101718.13;;;8.80;67.47
36248;BME280;22287;50.824;5.644;2022-11-13T02:52:51;101711.78;;;8.67;67.31
36248;BME280;22287;50.824;5.644;2022-11-13T02:55:37;101711.91;;;8.36;68.32
36248;BME280;22287;50.824;5.644;2022-11-13T02:58:22;101711.75;;;8.07;69.54
36248;BME280;22287;50.824;5.644;2022-11-13T03:01:07;101706.38;;;8.07;69.15
36248;BME280;22287;50.824;5.644;2022-11-13T03:03:52;101695.31;;;8.12;69.30
36248;BME280;22287;50.824;5.644;2022-11-13T03:06:42;101689.47;;;8.05;68.79
36248;BME280;22287;50.824;5.644;2022-11-13T03:09:27;101695.31;;;7.82;69.54
36248;BME280;22287;50.824;5.644;2022-11-13T03:12:13;101691.97;;;7.79;69.54
36248;BME280;22287;50.824;5.644;2022-11-13T03:14:58;101691.31;;;7.74;69.90
36248;BME280;22287;50.824;5.644;2022-11-13T03:17:43;101689.53;;;7.58;70.53
36248;BME280;22287;50.824;5.644;2022-11-13T03:20:28;101687.19;;;7.52;70.31
36248;BME280;22287;50.824;5.644;2022-11-13T03:23:14;101686.69;;;7.61;69.96
36248;BME280;22287;50.824;5.644;2022-11-13T03:26:08;101680.41;;;7.61;70.23
36248;BME280;22287;50.824;5.644;2022-11-13T03:28:53;101686.50;;;7.49;70.54
36248;BME280;22287;50.824;5.644;2022-11-13T03:31:39;101684.94;;;7.60;70.07
36248;BME280;22287;50.824;5.644;2022-11-13T03:34:25;101691.88;;;7.49;70.55
36248;BME280;22287;50.824;5.644;2022-11-13T03:37:10;101693.28;;;7.56;70.30
36248;BME280;22287;50.824;5.644;2022-11-13T03:39:56;101696.13;;;7.53;70.36
36248;BME280;22287;50.824;5.644;2022-11-13T03:42:42;101695.50;;;7.79;69.36
36248;BME280;22287;50.824;5.644;2022-11-13T03:45:27;101692.56;;;7.52;69.25
36248;BME280;22287;50.824;5.644;2022-11-13T03:48:14;101682.34;;;7.28;70.34
36248;BME280;22287;50.824;5.644;2022-11-13T03:50:59;101688.47;;;7.30;70.36
36248;BME280;22287;50.824;5.644;2022-11-13T03:53:45;101687.28;;;7.51;69.62
36248;BME280;22287;50.824;5.644;2022-11-13T03:56:30;101676.00;;;7.44;70.05
36248;BME280;22287;50.824;5.644;2022-11-13T03:59:15;101679.72;;;7.10;70.87
36248;BME280;22287;50.824;5.644;2022-11-13T04:02:01;101677.78;;;7.13;70.77
36248;BME280;22287;50.824;5.644;2022-11-13T04:04:46;101666.66;;;7.20;70.04
36248;BME280;22287;50.824;5.644;2022-11-13T04:07:31;101681.28;;;7.15;69.76
36248;BME280;22287;50.824;5.644;2022-11-13T04:10:16;101668.97;;;7.10;70.28
36248;BME280;22287;50.824;5.644;2022-11-13T04:13:01;101670.00;;;7.08;70.23
36248;BME280;22287;50.824;5.644;2022-11-13T04:15:47;101667.41;;;7.06;69.79
36248;BME280;22287;50.824;5.644;2022-11-13T04:18:32;101667.03;;;6.97;70.12
36248;BME280;22287;50.824;5.644;2022-11-13T04:21:17;101658.78;;;6.84;70.25
36248;BME280;22287;50.824;5.644;2022-11-13T04:24:02;101660.34;;;6.88;70.54
36248;BME280;22287;50.824;5.644;2022-11-13T04:26:48;101654.59;;;7.12;69.46
36248;BME280;22287;50.824;5.644;2022-11-13T04:29:33;101650.25;;;7.09;69.43
36248;BME280;22287;50.824;5.644;2022-11-13T04:32:19;101664.44;;;6.95;69.92
36248;BME280;22287;50.824;5.644;2022-11-13T04:35:05;101646.75;;;6.91;69.81
36248;BME280;22287;50.824;5.644;2022-11-13T04:37:51;101640.34;;;6.94;69.58
36248;BME280;22287;50.824;5.644;2022-11-13T04:40:38;101640.66;;;6.72;69.68
36248;BME280;22287;50.824;5.644;2022-11-13T04:43:25;101636.44;;;6.51;70.05
36248;BME280;22287;50.824;5.644;2022-11-13T04:46:10;101637.47;;;6.81;69.61
36248;BME280;22287;50.824;5.644;2022-11-13T04:48:56;101633.31;;;6.43;70.29
36248;BME280;22287;50.824;5.644;2022-11-13T04:51:41;101637.63;;;6.63;70.12
36248;BME280;22287;50.824;5.644;2022-11-13T04:54:27;101638.75;;;6.74;69.30
36248;BME280;22287;50.824;5.644;2022-11-13T04:57:13;101627.97;;;6.59;69.58
36248;BME280;22287;50.824;5.644;2022-11-13T04:59:58;101628.25;;;6.70;69.22
36248;BME280;22287;50.824;5.644;2022-11-13T05:02:43;101620.28;;;6.68;68.87
36248;BME280;22287;50.824;5.644;2022-11-13T05:05:28;101619.19;;;6.22;70.22
36248;BME280;22287;50.824;5.644;2022-11-13T05:08:14;101612.16;;;6.37;69.25
36248;BME280;22287;50.824;5.644;2022-11-13T05:10:59;101619.66;;;6.13;70.41
36248;BME280;22287;50.824;5.644;2022-11-13T05:13:45;101613.25;;;6.33;69.25
36248;BME280;22287;50.824;5.644;2022-11-13T05:16:31;101608.34;;;6.41;69.00
36248;BME280;22287;50.824;5.644;2022-11-13T05:19:19;101608.16;;;6.44;68.97
36248;BME280;22287;50.824;5.644;2022-11-13T05:22:04;101601.16;;;6.41;69.30
36248;BME280;22287;50.824;5.644;2022-11-13T05:24:50;101599.44;;;6.40;70.21
36248;BME280;22287;50.824;5.644;2022-11-13T05:27:35;101594.38;;;6.67;69.01
36248;BME280;22287;50.824;5.644;2022-11-13T05:30:20;101595.78;;;6.41;69.56
36248;BME280;22287;50.824;5.644;2022-11-13T05:33:05;101595.91;;;6.56;68.49
36248;BME280;22287;50.824;5.644;2022-11-13T05:35:51;101596.44;;;6.62;67.84
36248;BME280;22287;50.824;5.644;2022-11-13T05:38:36;101592.50;;;6.52;68.69
36248;BME280;22287;50.824;5.644;2022-11-13T05:41:22;101590.50;;;6.07;69.03
36248;BME280;22287;50.824;5.644;2022-11-13T05:44:07;101592.28;;;6.24;68.58
36248;BME280;22287;50.824;5.644;2022-11-13T05:46:52;101584.28;;;6.22;68.48
36248;BME280;22287;50.824;5.644;2022-11-13T05:49:37;101581.75;;;6.36;68.35
36248;BME280;22287;50.824;5.644;2022-11-13T05:52:23;101584.16;;;6.08;68.22
36248;BME280;22287;50.824;5.644;2022-11-13T05:55:08;101591.59;;;5.86;69.52
36248;BME280;22287;50.824;5.644;2022-11-13T05:57:53;101581.59;;;5.89;69.33
36248;BME280;22287;50.824;5.644;2022-11-13T06:00:38;101582.44;;;6.07;69.00
36248;BME280;22287;50.824;5.644;2022-11-13T06:03:24;101581.28;;;6.28;67.91
36248;BME280;22287;50.824;5.644;2022-11-13T06:06:12;101573.19;;;6.13;68.04
36248;BME280;22287;50.824;5.644;2022-11-13T06:08:59;101567.44;;;5.86;69.30
36248;BME280;22287;50.824;5.644;2022-11-13T06:11:45;101562.81;;;5.89;69.11
36248;BME280;22287;50.824;5.644;2022-11-13T06:14:30;101563.91;;;5.85;68.81
36248;BME280;22287;50.824;5.644;2022-11-13T06:17:16;101570.13;;;6.03;68.94
36248;BME280;22287;50.824;5.644;2022-11-13T06:20:01;101557.66;;;6.02;68.14
36248;BME280;22287;50.824;5.644;2022-11-13T06:22:46;101555.03;;;5.66;69.06
36248;BME280;22287;50.824;5.644;2022-11-13T06:25:31;101554.25;;;5.64;69.40
36248;BME280;22287;50.824;5.644;2022-11-13T06:28:16;101545.50;;;5.78;68.96
36248;BME280;22287;50.824;5.644;2022-11-13T06:31:03;101554.25;;;5.64;69.49
36248;BME280;22287;50.824;5.644;2022-11-13T06:33:49;101551.25;;;5.70;68.67
36248;BME280;22287;50.824;5.644;2022-11-13T06:36:35;101542.59;;;5.65;69.30
36248;BME280;22287;50.824;5.644;2022-11-13T06:39:23;101550.84;;;5.61;69.24
36248;BME280;22287;50.824;5.644;2022-11-13T06:42:09;101548.38;;;5.58;69.47
36248;BME280;22287;50.824;5.644;2022-11-13T06:44:54;101548.09;;;5.45;69.90
36248;BME280;22287;50.824;5.644;2022-11-13T06:47:40;101541.00;;;5.61;70.11
36248;BME280;22287;50.824;5.644;2022-11-13T06:50:26;101551.50;;;5.49;70.46
36248;BME280;22287;50.824;5.644;2022-11-13T06:53:11;101546.75;;;5.54;69.81
36248;BME280;22287;50.824;5.644;2022-11-13T06:55:57;101541.50;;;5.52;70.84
36248;BME280;22287;50.824;5.644;2022-11-13T06:58:42;101542.09;;;5.74;68.83
36248;BME280;22287;50.824;5.644;2022-11-13T07:01:28;101545.59;;;5.76;68.85
36248;BME280;22287;50.824;5.644;2022-11-13T07:04:13;101547.25;;;5.79;68.07
36248;BME280;22287;50.824;5.644;2022-11-13T07:06:58;101537.16;;;6.01;67.99
36248;BME280;22287;50.824;5.644;2022-11-13T07:09:44;101541.63;;;5.83;68.00
36248;BME280;22287;50.824;5.644;2022-11-13T07:12:29;101533.28;;;6.07;67.07
36248;BME280;22287;50.824;5.644;2022-11-13T07:15:15;101541.34;;;5.89;67.14
36248;BME280;22287;50.824;5.644;2022-11-13T07:18:01;101548.28;;;5.76;67.61
36248;BME280;22287;50.824;5.644;2022-11-13T07:20:47;101547.81;;;5.68;67.66
36248;BME280;22287;50.824;5.644;2022-11-13T07:23:33;101546.75;;;5.37;69.19
36248;BME280;22287;50.824;5.644;2022-11-13T07:26:21;101556.94;;;5.64;68.70
36248;BME280;22287;50.824;5.644;2022-11-13T07:29:07;101559.16;;;5.56;68.32
36248;BME280;22287;50.824;5.644;2022-11-13T07:31:52;101549.88;;;5.63;68.56
36248;BME280;22287;50.824;5.644;2022-11-13T07:34:38;101549.03;;;5.44;68.65
36248;BME280;22287;50.824;5.644;2022-11-13T07:37:23;101550.94;;;5.76;67.50
36248;BME280;22287;50.824;5.644;2022-11-13T07:40:10;101548.63;;;5.87;68.01
36248;BME280;22287;50.824;5.644;2022-11-13T07:42:57;101547.47;;;5.74;67.66
36248;BME280;22287;50.824;5.644;2022-11-13T07:45:43;101539.59;;;5.88;67.83
36248;BME280;22287;50.824;5.644;2022-11-13T07:48:28;101537.94;;;5.86;68.27
36248;BME280;22287;50.824;5.644;2022-11-13T07:51:14;101533.69;;;5.99;67.64
36248;BME280;22287;50.824;5.644;2022-11-13T07:53:59;101526.72;;;5.95;68.12
36248;BME280;22287;50.824;5.644;2022-11-13T07:56:45;101527.59;;;6.13;68.10
36248;BME280;22287;50.824;5.644;2022-11-13T07:59:31;101524.91;;;6.28;67.85
36248;BME280;22287;50.824;5.644;2022-11-13T08:02:16;101526.13;;;6.23;67.80
36248;BME280;22287;50.824;5.644;2022-11-13T08:05:05;101529.97;;;6.50;67.74
36248;BME280;22287;50.824;5.644;2022-11-13T08:07:51;101520.63;;;6.73;67.36
36248;BME280;22287;50.824;5.644;2022-11-13T08:10:36;101515.69;;;6.81;67.13
36248;BME280;22287;50.824;5.644;2022-11-13T08:13:21;101515.00;;;6.93;69.37
36248;BME280;22287;50.824;5.644;2022-11-13T08:16:07;101509.94;;;7.02;67.66
36248;BME280;22287;50.824;5.644;2022-11-13T08:18:52;101509.78;;;7.35;68.12
36248;BME280;22287;50.824;5.644;2022-11-13T08:21:38;101500.69;;;7.38;67.47
36248;BME280;22287;50.824;5.644;2022-11-13T08:24:23;101505.69;;;7.44;67.26
36248;BME280;22287;50.824;5.644;2022-11-13T08:27:08;101500.34;;;7.58;66.35
36248;BME280;22287;50.824;5.644;2022-11-13T08:29:54;101508.50;;;8.00;67.85
36248;BME280;22287;50.824;5.644;2022-11-13T08:32:40;101509.78;;;7.65;67.32
36248;BME280;22287;50.824;5.644;2022-11-13T08:35:25;101508.66;;;7.69;67.29
36248;BME280;22287;50.824;5.644;2022-11-13T08:38:13;101513.78;;;8.16;67.81
36248;BME280;22287;50.824;5.644;2022-11-13T08:40:59;101506.44;;;8.48;65.97
36248;BME280;22287;50.824;5.644;2022-11-13T08:43:51;101503.28;;;8.68;67.64
36248;BME280;22287;50.824;5.644;2022-11-13T08:46:37;101503.78;;;9.01;67.75
36248;BME280;22287;50.824;5.644;2022-11-13T08:49:22;101495.25;;;8.95;67.33
36248;BME280;22287;50.824;5.644;2022-11-13T08:52:07;101499.69;;;9.35;67.89
36248;BME280;22287;50.824;5.644;2022-11-13T08:54:52;101492.44;;;8.96;68.35
36248;BME280;22287;50.824;5.644;2022-11-13T08:57:38;101498.16;;;8.37;68.08
36248;BME280;22287;50.824;5.644;2022-11-13T09:00:25;101493.16;;;9.12;69.58
36248;BME280;22287;50.824;5.644;2022-11-13T09:03:11;101496.88;;;9.36;69.25
36248;BME280;22287;50.824;5.644;2022-11-13T09:05:57;101490.47;;;9.52;67.37
36248;BME280;22287;50.824;5.644;2022-11-13T09:08:43;101486.16;;;9.22;68.09
36248;BME280;22287;50.824;5.644;2022-11-13T09:11:28;101483.38;;;9.63;68.96
36248;BME280;22287;50.824;5.644;2022-11-13T09:14:13;101482.69;;;9.72;67.46
36248;BME280;22287;50.824;5.644;2022-11-13T09:16:58;101489.22;;;10.08;67.59
36248;BME280;22287;50.824;5.644;2022-11-13T09:19:44;101480.34;;;9.68;67.51
36248;BME280;22287;50.824;5.644;2022-11-13T09:22:30;101489.13;;;9.44;68.76
36248;BME280;22287;50.824;5.644;2022-11-13T09:25:15;101483.31;;;9.38;69.18
36248;BME280;22287;50.824;5.644;2022-11-13T09:28:02;101480.97;;;9.59;68.79
36248;BME280;22287;50.824;5.644;2022-11-13T09:30:49;101472.34;;;9.91;68.68
36248;BME280;22287;50.824;5.644;2022-11-13T09:33:35;101480.03;;;9.97;68.33
36248;BME280;22287;50.824;5.644;2022-11-13T09:36:20;101472.38;;;10.29;67.53
36248;BME280;22287;50.824;5.644;2022-11-13T09:39:05;101476.34;;;9.86;69.61
36248;BME280;22287;50.824;5.644;2022-11-13T09:44:55;101470.63;;;9.78;69.28
36248;BME280;22287;50.824;5.644;2022-11-13T09:47:45;101472.59;;;10.26;68.27
36248;BME280;22287;50.824;5.644;2022-11-13T09:50:31;101466.66;;;10.70;66.49
36248;BME280;22287;50.824;5.644;2022-11-13T09:53:17;101466.34;;;10.86;66.19
36248;BME280;22287;50.824;5.644;2022-11-13T09:56:24;101464.88;;;11.05;65.59
36248;BME280;22287;50.824;5.644;2022-11-13T09:59:22;101458.03;;;10.52;67.94
36248;BME280;22287;50.824;5.644;2022-11-13T10:05:40;101452.13;;;11.18;66.67
36248;BME280;22287;50.824;5.644;2022-11-13T10:14:20;101449.06;;;11.12;66.42
36248;BME280;22287;50.824;5.644;2022-11-13T10:20:05;101438.03;;;11.26;66.92
36248;BME280;22287;50.824;5.644;2022-11-13T10:22:58;101440.13;;;11.68;65.27
36248;BME280;22287;50.824;5.644;2022-11-13T10:25:48;101446.81;;;11.75;64.93
36248;BME280;22287;50.824;5.644;2022-11-13T10:28:36;101444.13;;;11.87;64.77
36248;BME280;22287;50.824;5.644;2022-11-13T10:31:47;101445.25;;;11.95;64.31
36248;BME280;22287;50.824;5.644;2022-11-13T10:34:33;101442.91;;;12.46;62.14
36248;BME280;22287;50.824;5.644;2022-11-13T10:37:29;101437.25;;;12.27;62.56
36248;BME280;22287;50.824;5.644;2022-11-13T10:40:32;101434.53;;;12.16;64.07
36248;BME280;22287;50.824;5.644;2022-11-13T10:43:19;101432.31;;;12.21;63.62
36248;BME280;22287;50.824;5.644;2022-11-13T10:46:05;101425.41;;;12.50;63.33
36248;BME280;22287;50.824;5.644;2022-11-13T10:48:50;101426.97;;;12.75;63.05
36248;BME280;22287;50.824;5.644;2022-11-13T10:51:35;101429.88;;;11.85;64.02
36248;BME280;22287;50.824;5.644;2022-11-13T10:54:29;101427.50;;;11.91;64.67
36248;BME280;22287;50.824;5.644;2022-11-13T10:57:29;101422.09;;;12.35;62.04
36248;BME280;22287;50.824;5.644;2022-11-13T11:00:38;101426.38;;;12.60;62.38
36248;BME280;22287;50.824;5.644;2022-11-13T11:03:25;101419.09;;;12.61;63.49
36248;BME280;22287;50.824;5.644;2022-11-13T11:06:11;101414.53;;;13.57;60.33
36248;BME280;22287;50.824;5.644;2022-11-13T11:15:05;101400.28;;;13.23;59.63
36248;BME280;22287;50.824;5.644;2022-11-13T11:18:03;101392.59;;;13.69;57.30
36248;BME280;22287;50.824;5.644;2022-11-13T11:20:56;101391.69;;;13.07;59.95
36248;BME280;22287;50.824;5.644;2022-11-13T11:27:08;101387.03;;;14.01;58.35
36248;BME280;22287;50.824;5.644;2022-11-13T11:30:05;101392.81;;;13.57;58.78
36248;BME280;22287;50.824;5.644;2022-11-13T11:41:57;101374.72;;;13.46;59.27
36248;BME280;22287;50.824;5.644;2022-11-13T11:45:06;101364.13;;;13.43;59.37
36248;BME280;22287;50.824;5.644;2022-11-13T11:47:56;101369.88;;;14.00;58.08
36248;BME280;22287;50.824;5.644;2022-11-13T11:50:47;101357.28;;;13.99;58.19
36248;BME280;22287;50.824;5.644;2022-11-13T11:56:54;101343.47;;;14.71;56.59
36248;BME280;22287;50.824;5.644;2022-11-13T11:59:51;101336.88;;;14.93;55.01
36248;BME280;22287;50.824;5.644;2022-11-13T12:12:06;101315.34;;;14.32;55.70
36248;BME280;22287;50.824;5.644;2022-11-13T12:21:02;101308.97;;;14.12;55.71
36248;BME280;22287;50.824;5.644;2022-11-13T12:27:48;101298.44;;;15.24;53.50
36248;BME280;22287;50.824;5.644;2022-11-13T12:30:35;101290.06;;;14.80;55.37
36248;BME280;22287;50.824;5.644;2022-11-13T12:36:45;101283.09;;;15.33;54.68
36248;BME280;22287;50.824;5.644;2022-11-13T12:39:55;101275.69;;;15.16;55.19
36248;BME280;22287;50.824;5.644;2022-11-13T12:42:47;101272.16;;;14.67;56.52
36248;BME280;22287;50.824;5.644;2022-11-13T12:48:33;101265.91;;;15.13;55.42
36248;BME280;22287;50.824;5.644;2022-11-13T12:51:19;101269.16;;;15.36;54.42
36248;BME280;22287;50.824;5.644;2022-11-13T12:54:05;101258.09;;;14.82;56.54
36248;BME280;22287;50.824;5.644;2022-11-13T12:56:50;101258.41;;;14.79;56.12
36248;BME280;22287;50.824;5.644;2022-11-13T12:59:40;101248.59;;;15.14;54.99
36248;BME280;22287;50.824;5.644;2022-11-13T13:02:55;101246.09;;;14.65;56.39
36248;BME280;22287;50.824;5.644;2022-11-13T13:06:07;101245.25;;;15.49;55.17
36248;BME280;22287;50.824;5.644;2022-11-13T13:09:05;101238.81;;;15.31;54.99
36248;BME280;22287;50.824;5.644;2022-11-13T13:17:45;101220.75;;;15.94;53.68
36248;BME280;22287;50.824;5.644;2022-11-13T13:20:35;101217.03;;;15.68;53.17
36248;BME280;22287;50.824;5.644;2022-11-13T13:23:29;101201.28;;;15.89;52.87
36248;BME280;22287;50.824;5.644;2022-11-13T13:26:19;101199.66;;;15.69;53.02
36248;BME280;22287;50.824;5.644;2022-11-13T13:29:15;101187.66;;;15.62;53.80
36248;BME280;22287;50.824;5.644;2022-11-13T13:35:18;101185.94;;;16.06;52.29
36248;BME280;22287;50.824;5.644;2022-11-13T13:41:24;101175.66;;;16.00;52.53
36248;BME280;22287;50.824;5.644;2022-11-13T13:44:47;101170.59;;;15.87;53.46
36248;BME280;22287;50.824;5.644;2022-11-13T13:50:19;101162.75;;;15.57;54.11
36248;BME280;22287;50.824;5.644;2022-11-13T13:53:08;101159.66;;;15.69;53.81
36248;BME280;22287;50.824;5.644;2022-11-13T13:55:55;101159.91;;;15.94;53.67
36248;BME280;22287;50.824;5.644;2022-11-13T13:58:42;101155.97;;;16.23;52.35
36248;BME280;22287;50.824;5.644;2022-11-13T14:01:30;101151.38;;;16.06;51.49
36248;BME280;22287;50.824;5.644;2022-11-13T14:04:19;101145.97;;;15.97;53.10
36248;BME280;22287;50.824;5.644;2022-11-13T14:07:21;101146.44;;;15.92;53.26
36248;BME280;22287;50.824;5.644;2022-11-13T14:10:14;101146.59;;;15.73;53.99
36248;BME280;22287;50.824;5.644;2022-11-13T14:13:01;101146.75;;;15.89;53.73
36248;BME280;22287;50.824;5.644;2022-11-13T14:15:46;101144.56;;;15.75;54.31
36248;BME280;22287;50.824;5.644;2022-11-13T14:18:32;101142.34;;;15.61;55.03
36248;BME280;22287;50.824;5.644;2022-11-13T14:21:20;101147.19;;;15.67;54.40
36248;BME280;22287;50.824;5.644;2022-11-13T14:24:22;101141.88;;;15.38;54.99
36248;BME280;22287;50.824;5.644;2022-11-13T14:27:12;101141.63;;;15.32;55.86
36248;BME280;22287;50.824;5.644;2022-11-13T14:30:00;101140.50;;;15.24;55.89
36248;BME280;22287;50.824;5.644;2022-11-13T14:32:46;101145.34;;;15.30;55.36
36248;BME280;22287;50.824;5.644;2022-11-13T14:35:32;101137.66;;;15.16;55.64
36248;BME280;22287;50.824;5.644;2022-11-13T14:38:20;101137.63;;;15.26;55.23
36248;BME280;22287;50.824;5.644;2022-11-13T14:41:17;101124.84;;;14.99;55.97
36248;BME280;22287;50.824;5.644;2022-11-13T14:44:04;101127.72;;;14.98;55.92
36248;BME280;22287;50.824;5.644;2022-11-13T14:47:18;101120.47;;;14.79;56.88
36248;BME280;22287;50.824;5.644;2022-11-13T14:50:18;101120.69;;;14.49;56.61
36248;BME280;22287;50.824;5.644;2022-11-13T14:53:08;101118.34;;;14.73;56.15
36248;BME280;22287;50.824;5.644;2022-11-13T14:55:59;101114.06;;;14.61;57.04
36248;BME280;22287;50.824;5.644;2022-11-13T14:58:46;101112.78;;;14.75;56.61
36248;BME280;22287;50.824;5.644;2022-11-13T15:01:31;101106.97;;;14.02;60.31
36248;BME280;22287;50.824;5.644;2022-11-13T15:04:17;101112.41;;;14.02;58.89
36248;BME280;22287;50.824;5.644;2022-11-13T15:07:38;101111.25;;;13.76;59.21
36248;BME280;22287;50.824;5.644;2022-11-13T15:10:24;101104.63;;;13.50;59.84
36248;BME280;22287;50.824;5.644;2022-11-13T15:13:12;101101.19;;;13.48;59.61
36248;BME280;22287;50.824;5.644;2022-11-13T15:15:57;101096.53;;;13.69;58.75
36248;BME280;22287;50.824;5.644;2022-11-13T15:18:47;101093.66;;;13.80;58.00
36248;BME280;22287;50.824;5.644;2022-11-13T15:21:33;101098.94;;;13.63;58.10
36248;BME280;22287;50.824;5.644;2022-11-13T15:24:19;101093.94;;;13.58;58.63
36248;BME280;22287;50.824;5.644;2022-11-13T15:27:04;101095.97;;;13.75;58.54
36248;BME280;22287;50.824;5.644;2022-11-13T15:29:49;101096.03;;;13.35;60.08
36248;BME280;22287;50.824;5.644;2022-11-13T15:32:35;101093.97;;;13.18;60.71
36248;BME280;22287;50.824;5.644;2022-11-13T15:35:20;101089.56;;;12.96;61.44
36248;BME280;22287;50.824;5.644;2022-11-13T15:38:05;101083.13;;;12.88;61.70
36248;BME280;22287;50.824;5.644;2022-11-13T15:40:51;101081.00;;;13.31;60.22
36248;BME280;22287;50.824;5.644;2022-11-13T15:43:36;101088.00;;;13.24;60.66
36248;BME280;22287;50.824;5.644;2022-11-13T15:46:22;101084.06;;;12.77;62.04
36248;BME280;22287;50.824;5.644;2022-11-13T15:49:08;101088.72;;;12.66;62.10
36248;BME280;22287;50.824;5.644;2022-11-13T15:51:53;101090.16;;;12.40;63.06
36248;BME280;22287;50.824;5.644;2022-11-13T15:54:38;101085.84;;;12.37;63.47
36248;BME280;22287;50.824;5.644;2022-11-13T15:57:26;101091.13;;;12.38;62.81
36248;BME280;22287;50.824;5.644;2022-11-13T16:00:16;101076.91;;;12.05;63.56
36248;BME280;22287;50.824;5.644;2022-11-13T16:03:01;101077.78;;;11.85;63.73
36248;BME280;22287;50.824;5.644;2022-11-13T16:05:48;101071.94;;;11.46;64.93
36248;BME280;22287;50.824;5.644;2022-11-13T16:08:34;101075.97;;;11.20;64.96